sensor_id;sensor_type;location;lat;lon;timestamp;pressure;altitude;pressure_sealevel;temperature;humidity
34742;BME280;20968;42.696;23.360;2024-02-16T00:01:41;95813.19;;;5.35;65.25
34742;BME280;20968;42.696;23.360;2024-02-16T00:04:07;95821.13;;;5.29;65.46
34742;BME280;20968;42.696;23.360;2024-02-16T00:06:32;95818.56;;;5.22;66.17
34742;BME280;20968;42.696;23.360;2024-02-16T00:08:59;95823.47;;;5.15;66.15
34742;BME280;20968;42.696;23.360;2024-02-16T00:11:24;95813.13;;;5.06;65.77
34742;BME280;20968;42.696;23.360;2024-02-16T00:13:50;95809.63;;;4.90;66.57
34742;BME280;20968;42.696;23.360;2024-02-16T00:16:15;95820.63;;;4.86;66.59
34742;BME280;20968;42.696;23.360;2024-02-16T00:18:41;95820.00;;;4.79;66.90
34742;BME280;20968;42.696;23.360;2024-02-16T00:21:06;95817.03;;;4.73;67.19
34742;BME280;20968;42.696;23.360;2024-02-16T00:23:32;95814.88;;;4.65;67.22
34742;BME280;20968;42.696;23.360;2024-02-16T00:25:59;95813.50;;;4.57;67.83
34742;BME280;20968;42.696;23.360;2024-02-16T00:28:24;95817.00;;;4.42;68.25
34742;BME280;20968;42.696;23.360;2024-02-16T00:30:49;95813.84;;;4.43;68.24
34742;BME280;20968;42.696;23.360;2024-02-16T00:33:15;95820.00;;;4.47;67.56
34742;BME280;20968;42.696;23.360;2024-02-16T00:35:42;95818.28;;;4.53;68.24
34742;BME280;20968;42.696;23.360;2024-02-16T00:38:08;95816.66;;;4.56;68.00
34742;BME280;20968;42.696;23.360;2024-02-16T00:40:33;95822.72;;;4.47;67.61
34742;BME280;20968;42.696;23.360;2024-02-16T00:42:58;95822.88;;;4.40;68.51
34742;BME280;20968;42.696;23.360;2024-02-16T00:45:24;95818.78;;;4.48;68.05
34742;BME280;20968;42.696;23.360;2024-02-16T00:47:50;95824.50;;;4.54;68.09
34742;BME280;20968;42.696;23.360;2024-02-16T00:50:15;95820.03;;;4.63;67.26
34742;BME280;20968;42.696;23.360;2024-02-16T00:52:40;95822.59;;;4.70;67.54
34742;BME280;20968;42.696;23.360;2024-02-16T00:55:06;95824.09;;;4.71;67.51
34742;BME280;20968;42.696;23.360;2024-02-16T00:57:31;95829.50;;;4.74;66.89
34742;BME280;20968;42.696;23.360;2024-02-16T00:59:59;95824.44;;;4.73;67.52
34742;BME280;20968;42.696;23.360;2024-02-16T01:02:24;95819.59;;;4.80;67.07
34742;BME280;20968;42.696;23.360;2024-02-16T01:04:51;95831.63;;;4.83;66.86
34742;BME280;20968;42.696;23.360;2024-02-16T01:07:17;95819.53;;;4.84;66.52
34742;BME280;20968;42.696;23.360;2024-02-16T01:09:42;95821.22;;;4.94;66.58
34742;BME280;20968;42.696;23.360;2024-02-16T01:12:08;95817.81;;;5.06;66.17
34742;BME280;20968;42.696;23.360;2024-02-16T01:14:33;95823.88;;;5.13;65.35
34742;BME280;20968;42.696;23.360;2024-02-16T01:16:59;95821.03;;;5.17;65.99
34742;BME280;20968;42.696;23.360;2024-02-16T01:19:24;95827.19;;;5.21;65.63
34742;BME280;20968;42.696;23.360;2024-02-16T01:21:50;95817.66;;;5.29;65.12
34742;BME280;20968;42.696;23.360;2024-02-16T01:24:18;95815.66;;;5.29;65.48
34742;BME280;20968;42.696;23.360;2024-02-16T01:26:45;95813.19;;;5.35;65.22
34742;BME280;20968;42.696;23.360;2024-02-16T01:29:10;95811.75;;;5.30;65.39
34742;BME280;20968;42.696;23.360;2024-02-16T01:31:36;95814.63;;;5.39;65.19
34742;BME280;20968;42.696;23.360;2024-02-16T01:34:02;95812.25;;;5.41;64.57
34742;BME280;20968;42.696;23.360;2024-02-16T01:36:27;95813.25;;;5.47;64.90
34742;BME280;20968;42.696;23.360;2024-02-16T01:38:52;95810.88;;;5.49;64.18
34742;BME280;20968;42.696;23.360;2024-02-16T01:41:18;95807.81;;;5.47;64.36
34742;BME280;20968;42.696;23.360;2024-02-16T01:43:43;95799.53;;;5.50;64.82
34742;BME280;20968;42.696;23.360;2024-02-16T01:46:09;95807.38;;;5.48;64.72
34742;BME280;20968;42.696;23.360;2024-02-16T01:48:34;95810.81;;;5.37;64.35
34742;BME280;20968;42.696;23.360;2024-02-16T01:51:00;95803.97;;;5.44;64.55
34742;BME280;20968;42.696;23.360;2024-02-16T01:53:27;95800.38;;;5.47;64.49
34742;BME280;20968;42.696;23.360;2024-02-16T01:55:53;95796.78;;;5.50;64.40
34742;BME280;20968;42.696;23.360;2024-02-16T01:58:19;95795.09;;;5.40;64.22
34742;BME280;20968;42.696;23.360;2024-02-16T02:00:44;95796.84;;;5.19;64.67
34742;BME280;20968;42.696;23.360;2024-02-16T02:03:10;95797.66;;;5.32;64.36
34742;BME280;20968;42.696;23.360;2024-02-16T02:05:44;95795.97;;;5.38;64.31
34742;BME280;20968;42.696;23.360;2024-02-16T02:08:13;95797.66;;;5.32;64.42
34742;BME280;20968;42.696;23.360;2024-02-16T02:10:39;95798.88;;;5.31;64.49
34742;BME280;20968;42.696;23.360;2024-02-16T02:13:04;95796.56;;;5.29;64.79
34742;BME280;20968;42.696;23.360;2024-02-16T02:15:29;95790.78;;;5.27;64.61
34742;BME280;20968;42.696;23.360;2024-02-16T02:17:55;95799.72;;;5.28;64.96
34742;BME280;20968;42.696;23.360;2024-02-16T02:20:20;95796.84;;;5.19;64.71
34742;BME280;20968;42.696;23.360;2024-02-16T02:22:45;95791.91;;;5.14;65.33
34742;BME280;20968;42.696;23.360;2024-02-16T02:25:11;95798.28;;;5.07;65.23
34742;BME280;20968;42.696;23.360;2024-02-16T02:27:37;95796.94;;;4.99;64.69
34742;BME280;20968;42.696;23.360;2024-02-16T02:30:03;95793.09;;;4.97;64.83
34742;BME280;20968;42.696;23.360;2024-02-16T02:32:28;95796.53;;;5.01;65.22
34742;BME280;20968;42.696;23.360;2024-02-16T02:34:54;95803.00;;;5.07;65.32
34742;BME280;20968;42.696;23.360;2024-02-16T02:37:20;95801.44;;;5.06;64.52
34742;BME280;20968;42.696;23.360;2024-02-16T02:39:45;95790.63;;;5.02;65.12
34742;BME280;20968;42.696;23.360;2024-02-16T02:42:10;95797.94;;;5.05;65.44
34742;BME280;20968;42.696;23.360;2024-02-16T02:44:36;95801.44;;;5.06;65.31
34742;BME280;20968;42.696;23.360;2024-02-16T02:47:01;95800.25;;;5.07;66.02
34742;BME280;20968;42.696;23.360;2024-02-16T02:49:27;95794.63;;;4.98;65.75
34742;BME280;20968;42.696;23.360;2024-02-16T02:51:52;95806.56;;;4.88;65.88
34742;BME280;20968;42.696;23.360;2024-02-16T02:54:17;95793.44;;;4.83;66.09
34742;BME280;20968;42.696;23.360;2024-02-16T02:56:43;95802.22;;;4.90;65.30
34742;BME280;20968;42.696;23.360;2024-02-16T02:59:08;95800.25;;;4.91;65.21
34742;BME280;20968;42.696;23.360;2024-02-16T03:01:36;95800.69;;;4.89;65.47
34742;BME280;20968;42.696;23.360;2024-02-16T03:04:02;95802.28;;;4.87;65.25
34742;BME280;20968;42.696;23.360;2024-02-16T03:06:27;95803.16;;;4.84;65.05
34742;BME280;20968;42.696;23.360;2024-02-16T03:08:53;95797.34;;;4.82;65.94
34742;BME280;20968;42.696;23.360;2024-02-16T03:11:18;95803.44;;;4.89;65.93
34742;BME280;20968;42.696;23.360;2024-02-16T03:13:44;95786.28;;;4.89;65.92
34742;BME280;20968;42.696;23.360;2024-02-16T03:16:09;95791.28;;;4.90;66.02
34742;BME280;20968;42.696;23.360;2024-02-16T03:18:34;95797.88;;;4.93;65.98
34742;BME280;20968;42.696;23.360;2024-02-16T03:21:00;95793.94;;;4.94;65.30
34742;BME280;20968;42.696;23.360;2024-02-16T03:23:27;95800.25;;;4.91;65.47
34742;BME280;20968;42.696;23.360;2024-02-16T03:25:52;95802.91;;;4.94;65.61
34742;BME280;20968;42.696;23.360;2024-02-16T03:28:18;95804.53;;;4.92;65.28
34742;BME280;20968;42.696;23.360;2024-02-16T03:30:44;95802.53;;;4.76;65.20
34742;BME280;20968;42.696;23.360;2024-02-16T03:33:10;95800.41;;;4.68;66.14
34742;BME280;20968;42.696;23.360;2024-02-16T03:35:36;95808.59;;;4.68;65.66
34742;BME280;20968;42.696;23.360;2024-02-16T03:38:02;95802.97;;;4.59;65.66
34742;BME280;20968;42.696;23.360;2024-02-16T03:40:28;95809.94;;;4.60;66.16
34742;BME280;20968;42.696;23.360;2024-02-16T03:42:54;95804.06;;;4.61;65.91
34742;BME280;20968;42.696;23.360;2024-02-16T03:45:20;95810.88;;;4.54;66.09
34742;BME280;20968;42.696;23.360;2024-02-16T03:47:45;95812.28;;;4.42;66.65
34742;BME280;20968;42.696;23.360;2024-02-16T03:50:14;95804.91;;;4.43;65.87
34742;BME280;20968;42.696;23.360;2024-02-16T03:52:39;95808.19;;;4.34;66.43
34742;BME280;20968;42.696;23.360;2024-02-16T03:55:05;95811.84;;;4.28;66.65
34742;BME280;20968;42.696;23.360;2024-02-16T03:57:30;95802.25;;;4.39;65.75
34742;BME280;20968;42.696;23.360;2024-02-16T03:59:56;95804.63;;;4.37;65.76
34742;BME280;20968;42.696;23.360;2024-02-16T04:02:22;95805.47;;;4.34;65.97
34742;BME280;20968;42.696;23.360;2024-02-16T04:04:47;95804.63;;;4.37;66.29
34742;BME280;20968;42.696;23.360;2024-02-16T04:07:12;95808.41;;;4.24;66.67
34742;BME280;20968;42.696;23.360;2024-02-16T04:09:38;95805.00;;;4.20;67.19
34742;BME280;20968;42.696;23.360;2024-02-16T04:12:03;95806.88;;;4.23;66.60
34742;BME280;20968;42.696;23.360;2024-02-16T04:14:32;95810.03;;;4.21;66.50
34742;BME280;20968;42.696;23.360;2024-02-16T04:16:59;95806.25;;;4.35;66.50
34742;BME280;20968;42.696;23.360;2024-02-16T04:19:25;95803.09;;;4.36;66.01
34742;BME280;20968;42.696;23.360;2024-02-16T04:21:50;95801.94;;;4.18;67.01
34742;BME280;20968;42.696;23.360;2024-02-16T04:24:16;95803.53;;;4.15;67.06
34742;BME280;20968;42.696;23.360;2024-02-16T04:26:42;95803.53;;;4.15;67.02
34742;BME280;20968;42.696;23.360;2024-02-16T04:29:07;95807.38;;;4.18;66.88
34742;BME280;20968;42.696;23.360;2024-02-16T04:31:32;95802.16;;;4.07;65.86
34742;BME280;20968;42.696;23.360;2024-02-16T04:33:58;95806.13;;;4.03;67.03
34742;BME280;20968;42.696;23.360;2024-02-16T04:36:23;95807.25;;;4.05;66.52
34742;BME280;20968;42.696;23.360;2024-02-16T04:38:49;95811.22;;;3.82;67.69
34742;BME280;20968;42.696;23.360;2024-02-16T04:41:14;95801.41;;;3.68;67.72
34742;BME280;20968;42.696;23.360;2024-02-16T04:43:40;95813.41;;;3.90;66.73
34742;BME280;20968;42.696;23.360;2024-02-16T04:46:05;95811.44;;;3.90;66.43
34742;BME280;20968;42.696;23.360;2024-02-16T04:48:31;95814.47;;;3.77;67.50
34742;BME280;20968;42.696;23.360;2024-02-16T04:50:57;95818.09;;;3.89;66.70
34742;BME280;20968;42.696;23.360;2024-02-16T04:53:22;95821.50;;;3.93;66.53
34742;BME280;20968;42.696;23.360;2024-02-16T04:55:48;95820.19;;;3.82;67.01
34742;BME280;20968;42.696;23.360;2024-02-16T04:58:13;95824.38;;;3.86;66.95
34742;BME280;20968;42.696;23.360;2024-02-16T05:00:39;95818.56;;;3.65;67.24
34742;BME280;20968;42.696;23.360;2024-02-16T05:03:04;95826.69;;;3.88;73.76
34742;BME280;20968;42.696;23.360;2024-02-16T05:05:29;95827.50;;;6.39;86.75
34742;BME280;20968;42.696;23.360;2024-02-16T05:07:56;95826.03;;;7.59;78.30
34742;BME280;20968;42.696;23.360;2024-02-16T05:10:22;95829.69;;;8.33;73.09
34742;BME280;20968;42.696;23.360;2024-02-16T05:12:48;95838.19;;;7.92;70.55
34742;BME280;20968;42.696;23.360;2024-02-16T05:15:13;95831.47;;;7.25;68.96
34742;BME280;20968;42.696;23.360;2024-02-16T05:17:39;95841.31;;;6.73;65.91
34742;BME280;20968;42.696;23.360;2024-02-16T05:20:14;95849.69;;;6.29;64.30
34742;BME280;20968;42.696;23.360;2024-02-16T05:22:45;95848.66;;;5.82;63.41
34742;BME280;20968;42.696;23.360;2024-02-16T05:25:12;95853.84;;;5.61;63.09
34742;BME280;20968;42.696;23.360;2024-02-16T05:27:37;95850.13;;;5.39;62.19
34742;BME280;20968;42.696;23.360;2024-02-16T05:30:03;95859.16;;;5.20;62.76
34742;BME280;20968;42.696;23.360;2024-02-16T05:32:29;95860.28;;;4.91;63.26
34742;BME280;20968;42.696;23.360;2024-02-16T05:34:55;95859.72;;;4.80;63.58
34742;BME280;20968;42.696;23.360;2024-02-16T05:37:20;95862.47;;;4.80;62.75
34742;BME280;20968;42.696;23.360;2024-02-16T05:39:47;95860.13;;;4.62;63.84
34742;BME280;20968;42.696;23.360;2024-02-16T05:42:33;95870.31;;;4.43;63.91
34742;BME280;20968;42.696;23.360;2024-02-16T05:44:58;95867.66;;;4.39;65.01
34742;BME280;20968;42.696;23.360;2024-02-16T05:47:24;95861.56;;;4.32;65.13
34742;BME280;20968;42.696;23.360;2024-02-16T05:49:49;95867.19;;;4.25;65.53
34742;BME280;20968;42.696;23.360;2024-02-16T05:52:15;95866.69;;;4.10;66.25
34742;BME280;20968;42.696;23.360;2024-02-16T05:54:45;95871.72;;;4.12;66.71
34742;BME280;20968;42.696;23.360;2024-02-16T05:57:10;95879.41;;;4.17;66.10
34742;BME280;20968;42.696;23.360;2024-02-16T05:59:36;95869.28;;;4.17;66.79
34742;BME280;20968;42.696;23.360;2024-02-16T06:02:03;95860.13;;;4.27;66.52
34742;BME280;20968;42.696;23.360;2024-02-16T06:04:29;95867.75;;;4.16;66.78
34742;BME280;20968;42.696;23.360;2024-02-16T06:06:54;95870.53;;;4.13;66.97
34742;BME280;20968;42.696;23.360;2024-02-16T06:09:19;95871.72;;;4.12;67.29
34742;BME280;20968;42.696;23.360;2024-02-16T06:11:45;95873.53;;;4.18;67.85
34742;BME280;20968;42.696;23.360;2024-02-16T06:14:10;95874.25;;;4.22;68.01
34742;BME280;20968;42.696;23.360;2024-02-16T06:16:35;95872.78;;;4.18;67.91
34742;BME280;20968;42.696;23.360;2024-02-16T06:19:01;95877.47;;;4.17;67.98
34742;BME280;20968;42.696;23.360;2024-02-16T06:21:26;95884.41;;;3.99;69.29
34742;BME280;20968;42.696;23.360;2024-02-16T06:23:51;95876.31;;;3.95;69.42
34742;BME280;20968;42.696;23.360;2024-02-16T06:26:17;95881.91;;;4.08;69.07
34742;BME280;20968;42.696;23.360;2024-02-16T06:28:42;95881.16;;;4.27;68.94
34742;BME280;20968;42.696;23.360;2024-02-16T06:31:08;95875.63;;;4.30;69.01
34742;BME280;20968;42.696;23.360;2024-02-16T06:33:33;95875.06;;;4.39;68.18
34742;BME280;20968;42.696;23.360;2024-02-16T06:35:58;95874.44;;;4.31;68.18
34742;BME280;20968;42.696;23.360;2024-02-16T06:38:24;95865.19;;;4.45;68.47
34742;BME280;20968;42.696;23.360;2024-02-16T06:40:49;95871.88;;;4.59;68.15
34742;BME280;20968;42.696;23.360;2024-02-16T06:43:14;95874.56;;;4.79;68.10
34742;BME280;20968;42.696;23.360;2024-02-16T06:45:40;95871.16;;;4.75;68.02
34742;BME280;20968;42.696;23.360;2024-02-16T06:48:05;95877.47;;;4.88;67.34
34742;BME280;20968;42.696;23.360;2024-02-16T06:50:31;95876.03;;;4.83;67.33
34742;BME280;20968;42.696;23.360;2024-02-16T06:52:56;95878.00;;;4.83;67.39
34742;BME280;20968;42.696;23.360;2024-02-16T06:55:22;95871.47;;;5.12;66.32
34742;BME280;20968;42.696;23.360;2024-02-16T06:57:47;95873.59;;;5.37;66.17
34742;BME280;20968;42.696;23.360;2024-02-16T07:00:13;95869.84;;;5.46;65.90
34742;BME280;20968;42.696;23.360;2024-02-16T07:02:40;95873.69;;;5.49;65.39
34742;BME280;20968;42.696;23.360;2024-02-16T07:05:07;95884.69;;;5.45;65.60
34742;BME280;20968;42.696;23.360;2024-02-16T07:07:33;95875.63;;;5.64;65.63
34742;BME280;20968;42.696;23.360;2024-02-16T07:10:01;95879.78;;;5.69;65.44
34742;BME280;20968;42.696;23.360;2024-02-16T07:12:27;95883.22;;;5.73;65.27
34742;BME280;20968;42.696;23.360;2024-02-16T07:14:52;95886.19;;;5.94;64.86
34742;BME280;20968;42.696;23.360;2024-02-16T07:17:18;95874.44;;;6.10;64.50
34742;BME280;20968;42.696;23.360;2024-02-16T07:19:44;95870.03;;;6.28;63.70
34742;BME280;20968;42.696;23.360;2024-02-16T07:22:09;95869.41;;;6.49;63.53
34742;BME280;20968;42.696;23.360;2024-02-16T07:24:35;95881.78;;;6.53;63.10
34742;BME280;20968;42.696;23.360;2024-02-16T07:27:00;95868.66;;;6.48;63.26
34742;BME280;20968;42.696;23.360;2024-02-16T07:29:27;95874.41;;;6.38;63.26
34742;BME280;20968;42.696;23.360;2024-02-16T07:31:53;95870.38;;;6.42;64.07
34742;BME280;20968;42.696;23.360;2024-02-16T07:34:19;95876.25;;;6.69;62.37
34742;BME280;20968;42.696;23.360;2024-02-16T07:36:45;95874.50;;;6.88;61.39
34742;BME280;20968;42.696;23.360;2024-02-16T07:39:10;95877.91;;;7.04;60.71
34742;BME280;20968;42.696;23.360;2024-02-16T07:41:37;95876.47;;;7.12;59.53
34742;BME280;20968;42.696;23.360;2024-02-16T07:44:03;95877.25;;;7.12;59.41
34742;BME280;20968;42.696;23.360;2024-02-16T07:46:28;95877.09;;;9.06;77.60
34742;BME280;20968;42.696;23.360;2024-02-16T07:48:53;95872.06;;;10.28;68.58
34742;BME280;20968;42.696;23.360;2024-02-16T07:51:20;95881.22;;;9.98;55.63
34742;BME280;20968;42.696;23.360;2024-02-16T07:53:45;95883.97;;;9.50;54.30
34742;BME280;20968;42.696;23.360;2024-02-16T07:56:12;95893.84;;;8.99;53.76
34742;BME280;20968;42.696;23.360;2024-02-16T07:58:37;95886.69;;;8.50;54.97
34742;BME280;20968;42.696;23.360;2024-02-16T08:01:02;95888.00;;;8.46;56.42
34742;BME280;20968;42.696;23.360;2024-02-16T08:03:28;95889.91;;;8.15;56.35
34742;BME280;20968;42.696;23.360;2024-02-16T08:05:55;95883.94;;;7.82;57.86
34742;BME280;20968;42.696;23.360;2024-02-16T08:08:22;95884.44;;;8.02;57.75
34742;BME280;20968;42.696;23.360;2024-02-16T08:10:48;95886.75;;;8.04;57.16
34742;BME280;20968;42.696;23.360;2024-02-16T08:13:13;95884.69;;;7.83;58.82
34742;BME280;20968;42.696;23.360;2024-02-16T08:15:39;95880.75;;;7.84;59.34
34742;BME280;20968;42.696;23.360;2024-02-16T08:18:04;95883.56;;;7.59;58.84
34742;BME280;20968;42.696;23.360;2024-02-16T08:20:30;95878.97;;;7.56;58.13
34742;BME280;20968;42.696;23.360;2024-02-16T08:22:56;95885.19;;;7.69;58.80
34742;BME280;20968;42.696;23.360;2024-02-16T08:25:21;95878.59;;;7.79;58.63
34742;BME280;20968;42.696;23.360;2024-02-16T08:27:48;95883.53;;;7.71;59.35
34742;BME280;20968;42.696;23.360;2024-02-16T08:30:14;95885.94;;;7.82;59.03
34742;BME280;20968;42.696;23.360;2024-02-16T08:32:40;95891.69;;;7.96;57.90
34742;BME280;20968;42.696;23.360;2024-02-16T08:35:05;95891.91;;;8.02;58.26
34742;BME280;20968;42.696;23.360;2024-02-16T08:37:31;95889.53;;;8.13;57.57
34742;BME280;20968;42.696;23.360;2024-02-16T08:39:57;95884.63;;;8.20;57.33
34742;BME280;20968;42.696;23.360;2024-02-16T08:42:22;95882.75;;;8.17;56.97
34742;BME280;20968;42.696;23.360;2024-02-16T08:44:49;95884.00;;;8.04;57.89
34742;BME280;20968;42.696;23.360;2024-02-16T08:47:14;95879.41;;;8.01;59.72
34742;BME280;20968;42.696;23.360;2024-02-16T08:49:40;95888.25;;;8.17;57.81
34742;BME280;20968;42.696;23.360;2024-02-16T08:52:07;95884.50;;;8.24;59.22
34742;BME280;20968;42.696;23.360;2024-02-16T08:54:33;95878.16;;;8.14;58.82
34742;BME280;20968;42.696;23.360;2024-02-16T08:56:59;95881.94;;;8.29;57.86
34742;BME280;20968;42.696;23.360;2024-02-16T08:59:26;95878.69;;;8.43;57.46
34742;BME280;20968;42.696;23.360;2024-02-16T09:01:51;95878.25;;;8.45;58.00
34742;BME280;20968;42.696;23.360;2024-02-16T09:04:17;95889.88;;;8.49;57.98
34742;BME280;20968;42.696;23.360;2024-02-16T09:06:43;95883.53;;;8.60;58.04
34742;BME280;20968;42.696;23.360;2024-02-16T09:09:08;95884.53;;;8.75;57.56
34742;BME280;20968;42.696;23.360;2024-02-16T09:11:33;95883.00;;;8.96;57.02
34742;BME280;20968;42.696;23.360;2024-02-16T09:13:59;95886.59;;;9.14;56.14
34742;BME280;20968;42.696;23.360;2024-02-16T09:16:25;95888.72;;;9.19;55.62
34742;BME280;20968;42.696;23.360;2024-02-16T09:18:51;95892.88;;;9.24;56.33
34742;BME280;20968;42.696;23.360;2024-02-16T09:21:16;95885.47;;;9.42;54.86
34742;BME280;20968;42.696;23.360;2024-02-16T09:23:42;95893.31;;;9.61;53.49
34742;BME280;20968;42.696;23.360;2024-02-16T09:26:07;95886.47;;;9.66;53.12
34742;BME280;20968;42.696;23.360;2024-02-16T09:28:39;95892.00;;;9.84;52.42
34742;BME280;20968;42.696;23.360;2024-02-16T09:31:06;95889.78;;;10.09;50.67
34742;BME280;20968;42.696;23.360;2024-02-16T09:33:33;95880.78;;;10.26;50.67
34742;BME280;20968;42.696;23.360;2024-02-16T09:35:58;95889.78;;;10.18;50.58
34742;BME280;20968;42.696;23.360;2024-02-16T09:38:24;95879.69;;;10.15;50.88
34742;BME280;20968;42.696;23.360;2024-02-16T09:40:50;95886.91;;;10.30;51.66
34742;BME280;20968;42.696;23.360;2024-02-16T09:43:28;95879.22;;;10.70;50.05
34742;BME280;20968;42.696;23.360;2024-02-16T09:45:58;95883.97;;;10.70;50.14
34742;BME280;20968;42.696;23.360;2024-02-16T09:48:26;95880.41;;;10.87;49.65
34742;BME280;20968;42.696;23.360;2024-02-16T09:50:53;95880.41;;;10.87;49.46
34742;BME280;20968;42.696;23.360;2024-02-16T09:53:19;95877.03;;;10.92;48.65
34742;BME280;20968;42.696;23.360;2024-02-16T09:55:49;95879.88;;;11.15;49.48
34742;BME280;20968;42.696;23.360;2024-02-16T09:58:15;95875.50;;;10.91;48.71
34742;BME280;20968;42.696;23.360;2024-02-16T10:00:54;95872.91;;;10.96;48.95
34742;BME280;20968;42.696;23.360;2024-02-16T10:03:27;95867.13;;;11.27;48.35
34742;BME280;20968;42.696;23.360;2024-02-16T10:06:04;95868.19;;;11.29;48.75
34742;BME280;20968;42.696;23.360;2024-02-16T10:08:30;95864.41;;;11.59;47.49
34742;BME280;20968;42.696;23.360;2024-02-16T10:11:03;95856.44;;;12.08;46.35
34742;BME280;20968;42.696;23.360;2024-02-16T10:13:29;95859.53;;;12.24;45.77
34742;BME280;20968;42.696;23.360;2024-02-16T10:16:07;95849.88;;;12.05;46.02
34742;BME280;20968;42.696;23.360;2024-02-16T10:18:35;95846.50;;;12.25;45.74
34742;BME280;20968;42.696;23.360;2024-02-16T10:21:01;95844.91;;;12.33;46.33
34742;BME280;20968;42.696;23.360;2024-02-16T10:23:26;95835.84;;;12.32;45.82
34742;BME280;20968;42.696;23.360;2024-02-16T10:25:52;95837.59;;;12.58;45.70
34742;BME280;20968;42.696;23.360;2024-02-16T10:28:20;95837.31;;;12.71;46.04
34742;BME280;20968;42.696;23.360;2024-02-16T10:30:48;95835.78;;;12.70;46.44
34742;BME280;20968;42.696;23.360;2024-02-16T10:33:13;95843.84;;;12.97;45.42
34742;BME280;20968;42.696;23.360;2024-02-16T10:35:39;95836.41;;;12.88;45.64
34742;BME280;20968;42.696;23.360;2024-02-16T10:38:07;95830.88;;;13.03;44.55
34742;BME280;20968;42.696;23.360;2024-02-16T10:40:39;95836.00;;;13.24;44.66
34742;BME280;20968;42.696;23.360;2024-02-16T10:43:05;95820.00;;;13.48;43.91
34742;BME280;20968;42.696;23.360;2024-02-16T10:45:34;95817.06;;;13.51;43.48
34742;BME280;20968;42.696;23.360;2024-02-16T10:48:01;95823.84;;;13.50;43.28
34742;BME280;20968;42.696;23.360;2024-02-16T10:50:27;95826.22;;;13.57;43.52
34742;BME280;20968;42.696;23.360;2024-02-16T10:52:54;95819.66;;;13.40;43.90
34742;BME280;20968;42.696;23.360;2024-02-16T10:55:22;95812.19;;;13.12;45.00
34742;BME280;20968;42.696;23.360;2024-02-16T10:57:49;95815.69;;;13.27;45.98
34742;BME280;20968;42.696;23.360;2024-02-16T11:00:15;95804.09;;;13.43;44.89
34742;BME280;20968;42.696;23.360;2024-02-16T11:02:55;95805.72;;;13.49;44.37
34742;BME280;20968;42.696;23.360;2024-02-16T11:05:40;95815.38;;;13.39;44.57
34742;BME280;20968;42.696;23.360;2024-02-16T11:08:16;95807.28;;;13.36;43.99
34742;BME280;20968;42.696;23.360;2024-02-16T11:11:02;95804.50;;;13.70;44.36
34742;BME280;20968;42.696;23.360;2024-02-16T11:13:35;95802.59;;;13.96;42.35
34742;BME280;20968;42.696;23.360;2024-02-16T11:16:03;95806.31;;;13.93;43.10
34742;BME280;20968;42.696;23.360;2024-02-16T11:18:36;95797.22;;;13.73;42.99
34742;BME280;20968;42.696;23.360;2024-02-16T11:21:02;95796.56;;;13.78;42.03
34742;BME280;20968;42.696;23.360;2024-02-16T11:23:30;95794.19;;;13.91;42.59
34742;BME280;20968;42.696;23.360;2024-02-16T11:26:03;95787.75;;;13.79;42.97
34742;BME280;20968;42.696;23.360;2024-02-16T11:28:31;95789.41;;;13.51;42.63
34742;BME280;20968;42.696;23.360;2024-02-16T11:30:58;95789.13;;;14.09;42.88
34742;BME280;20968;42.696;23.360;2024-02-16T11:33:23;95790.44;;;14.53;41.98
34742;BME280;20968;42.696;23.360;2024-02-16T11:35:56;95778.34;;;14.81;40.24
34742;BME280;20968;42.696;23.360;2024-02-16T11:38:22;95769.81;;;14.60;40.59
34742;BME280;20968;42.696;23.360;2024-02-16T11:40:55;95773.94;;;14.70;41.33
34742;BME280;20968;42.696;23.360;2024-02-16T11:43:22;95770.41;;;14.94;41.21
34742;BME280;20968;42.696;23.360;2024-02-16T11:45:48;95777.22;;;15.24;39.79
34742;BME280;20968;42.696;23.360;2024-02-16T11:48:22;95769.44;;;15.03;40.47
34742;BME280;20968;42.696;23.360;2024-02-16T11:50:49;95764.28;;;14.90;40.60
34742;BME280;20968;42.696;23.360;2024-02-16T11:53:16;95766.56;;;14.61;41.01
34742;BME280;20968;42.696;23.360;2024-02-16T11:55:46;95763.22;;;14.82;41.09
34742;BME280;20968;42.696;23.360;2024-02-16T11:58:12;95763.38;;;14.68;41.38
34742;BME280;20968;42.696;23.360;2024-02-16T12:00:40;95763.84;;;14.97;40.87
34742;BME280;20968;42.696;23.360;2024-02-16T12:03:06;95761.44;;;15.41;39.96
34742;BME280;20968;42.696;23.360;2024-02-16T12:05:33;95758.81;;;15.63;39.89
34742;BME280;20968;42.696;23.360;2024-02-16T12:07:58;95757.81;;;15.71;39.29
34742;BME280;20968;42.696;23.360;2024-02-16T12:10:24;95754.06;;;15.80;39.98
34742;BME280;20968;42.696;23.360;2024-02-16T12:12:50;95746.88;;;16.04;38.20
34742;BME280;20968;42.696;23.360;2024-02-16T12:15:15;95749.44;;;16.19;38.14
34742;BME280;20968;42.696;23.360;2024-02-16T12:17:43;95743.44;;;16.31;38.22
34742;BME280;20968;42.696;23.360;2024-02-16T12:20:12;95743.69;;;16.33;38.41
34742;BME280;20968;42.696;23.360;2024-02-16T12:22:39;95741.16;;;16.30;39.06
34742;BME280;20968;42.696;23.360;2024-02-16T12:25:04;95743.19;;;15.76;39.71
34742;BME280;20968;42.696;23.360;2024-02-16T12:27:30;95740.72;;;15.84;39.66
34742;BME280;20968;42.696;23.360;2024-02-16T12:29:55;95738.81;;;16.12;39.12
34742;BME280;20968;42.696;23.360;2024-02-16T12:32:20;95737.31;;;16.16;39.17
34742;BME280;20968;42.696;23.360;2024-02-16T12:34:46;95737.94;;;15.84;38.44
34742;BME280;20968;42.696;23.360;2024-02-16T12:37:12;95729.97;;;15.55;38.64
34742;BME280;20968;42.696;23.360;2024-02-16T12:39:38;95733.34;;;15.70;38.59
34742;BME280;20968;42.696;23.360;2024-02-16T12:42:03;95727.38;;;15.93;39.37
34742;BME280;20968;42.696;23.360;2024-02-16T12:44:29;95722.13;;;16.12;38.77
34742;BME280;20968;42.696;23.360;2024-02-16T12:46:55;95728.44;;;16.07;38.70
34742;BME280;20968;42.696;23.360;2024-02-16T12:49:21;95726.22;;;16.27;37.69
34742;BME280;20968;42.696;23.360;2024-02-16T12:51:50;95729.47;;;16.15;37.78
34742;BME280;20968;42.696;23.360;2024-02-16T12:54:16;95723.84;;;15.93;38.21